sensor_id;sensor_type;location;lat;lon;timestamp;P1;durP1;ratioP1;P2;durP2;ratioP2
52586;SDS011;38480;52.724;6.436;2024-01-30T00:02:07;35.87;;;23.53;;
52586;SDS011;38480;52.724;6.436;2024-01-30T00:04:33;32.90;;;23.37;;
52586;SDS011;38480;52.724;6.436;2024-01-30T00:06:59;35.23;;;23.10;;
52586;SDS011;38480;52.724;6.436;2024-01-30T00:09:25;32.73;;;23.43;;
52586;SDS011;38480;52.724;6.436;2024-01-30T00:11:51;38.00;;;23.77;;
52586;SDS011;38480;52.724;6.436;2024-01-30T00:14:17;34.77;;;22.67;;
52586;SDS011;38480;52.724;6.436;2024-01-30T00:16:43;35.37;;;23.30;;
52586;SDS011;38480;52.724;6.436;2024-01-30T00:19:10;46.13;;;24.13;;
52586;SDS011;38480;52.724;6.436;2024-01-30T00:21:36;37.33;;;24.87;;
52586;SDS011;38480;52.724;6.436;2024-01-30T00:24:02;36.60;;;24.47;;
52586;SDS011;38480;52.724;6.436;2024-01-30T00:26:28;41.07;;;25.27;;
52586;SDS011;38480;52.724;6.436;2024-01-30T00:28:54;35.13;;;24.27;;
52586;SDS011;38480;52.724;6.436;2024-01-30T00:31:20;40.03;;;25.33;;
52586;SDS011;38480;52.724;6.436;2024-01-30T00:33:46;36.97;;;24.27;;
52586;SDS011;38480;52.724;6.436;2024-01-30T00:36:12;36.47;;;24.77;;
52586;SDS011;38480;52.724;6.436;2024-01-30T00:38:38;46.43;;;26.63;;
52586;SDS011;38480;52.724;6.436;2024-01-30T00:41:06;39.50;;;25.73;;
52586;SDS011;38480;52.724;6.436;2024-01-30T00:43:32;43.30;;;26.43;;
52586;SDS011;38480;52.724;6.436;2024-01-30T00:45:58;38.07;;;25.50;;
52586;SDS011;38480;52.724;6.436;2024-01-30T00:48:24;45.17;;;26.90;;
52586;SDS011;38480;52.724;6.436;2024-01-30T00:50:50;39.37;;;25.87;;
52586;SDS011;38480;52.724;6.436;2024-01-30T00:53:16;38.70;;;25.43;;
52586;SDS011;38480;52.724;6.436;2024-01-30T00:55:43;38.23;;;25.77;;
52586;SDS011;38480;52.724;6.436;2024-01-30T00:58:09;38.47;;;27.03;;
52586;SDS011;38480;52.724;6.436;2024-01-30T01:00:35;43.03;;;26.43;;
52586;SDS011;38480;52.724;6.436;2024-01-30T01:03:01;44.97;;;29.57;;
52586;SDS011;38480;52.724;6.436;2024-01-30T01:05:27;47.10;;;29.07;;
52586;SDS011;38480;52.724;6.436;2024-01-30T01:07:53;39.33;;;26.27;;
52586;SDS011;38480;52.724;6.436;2024-01-30T01:10:19;43.67;;;26.47;;
52586;SDS011;38480;52.724;6.436;2024-01-30T01:12:45;44.10;;;29.57;;
52586;SDS011;38480;52.724;6.436;2024-01-30T01:15:11;47.00;;;29.87;;
52586;SDS011;38480;52.724;6.436;2024-01-30T01:17:38;49.50;;;29.80;;
52586;SDS011;38480;52.724;6.436;2024-01-30T01:20:04;39.60;;;26.80;;
52586;SDS011;38480;52.724;6.436;2024-01-30T01:22:31;43.97;;;29.03;;
52586;SDS011;38480;52.724;6.436;2024-01-30T01:24:57;43.23;;;27.20;;
52586;SDS011;38480;52.724;6.436;2024-01-30T01:27:23;44.03;;;29.03;;
52586;SDS011;38480;52.724;6.436;2024-01-30T01:29:50;45.20;;;25.40;;
52586;SDS011;38480;52.724;6.436;2024-01-30T01:32:16;42.67;;;27.47;;
52586;SDS011;38480;52.724;6.436;2024-01-30T01:34:42;40.90;;;26.70;;
52586;SDS011;38480;52.724;6.436;2024-01-30T01:37:08;44.90;;;28.83;;
52586;SDS011;38480;52.724;6.436;2024-01-30T01:39:34;43.27;;;28.23;;
52586;SDS011;38480;52.724;6.436;2024-01-30T01:42:00;49.93;;;29.27;;
52586;SDS011;38480;52.724;6.436;2024-01-30T01:44:26;43.97;;;27.73;;
52586;SDS011;38480;52.724;6.436;2024-01-30T01:46:52;42.83;;;28.00;;
52586;SDS011;38480;52.724;6.436;2024-01-30T01:49:19;38.80;;;26.53;;
52586;SDS011;38480;52.724;6.436;2024-01-30T01:51:45;39.83;;;26.03;;
52586;SDS011;38480;52.724;6.436;2024-01-30T01:54:12;40.93;;;26.30;;
52586;SDS011;38480;52.724;6.436;2024-01-30T01:56:39;42.13;;;27.03;;
52586;SDS011;38480;52.724;6.436;2024-01-30T01:59:06;42.93;;;26.73;;
52586;SDS011;38480;52.724;6.436;2024-01-30T02:01:33;42.13;;;28.20;;
52586;SDS011;38480;52.724;6.436;2024-01-30T02:03:59;39.03;;;25.70;;
52586;SDS011;38480;52.724;6.436;2024-01-30T02:06:26;41.30;;;26.83;;
52586;SDS011;38480;52.724;6.436;2024-01-30T02:08:52;46.90;;;26.27;;
52586;SDS011;38480;52.724;6.436;2024-01-30T02:11:18;41.43;;;26.77;;
52586;SDS011;38480;52.724;6.436;2024-01-30T02:13:45;43.57;;;26.60;;
52586;SDS011;38480;52.724;6.436;2024-01-30T02:16:12;45.47;;;25.40;;
52586;SDS011;38480;52.724;6.436;2024-01-30T02:18:38;39.93;;;26.63;;
52586;SDS011;38480;52.724;6.436;2024-01-30T02:21:10;40.70;;;25.93;;
52586;SDS011;38480;52.724;6.436;2024-01-30T02:23:36;38.90;;;25.80;;
52586;SDS011;38480;52.724;6.436;2024-01-30T02:26:03;41.77;;;27.00;;
52586;SDS011;38480;52.724;6.436;2024-01-30T02:28:29;45.27;;;26.27;;
52586;SDS011;38480;52.724;6.436;2024-01-30T03:01:22;38.03;;;23.57;;
52586;SDS011;38480;52.724;6.436;2024-01-30T03:03:49;34.63;;;24.97;;
52586;SDS011;38480;52.724;6.436;2024-01-30T03:06:15;35.40;;;25.23;;
52586;SDS011;38480;52.724;6.436;2024-01-30T03:08:42;38.23;;;24.70;;
52586;SDS011;38480;52.724;6.436;2024-01-30T03:11:08;39.63;;;24.87;;
52586;SDS011;38480;52.724;6.436;2024-01-30T03:13:34;37.33;;;24.50;;
52586;SDS011;38480;52.724;6.436;2024-01-30T03:16:00;39.87;;;25.47;;
52586;SDS011;38480;52.724;6.436;2024-01-30T03:18:26;40.57;;;24.40;;
52586;SDS011;38480;52.724;6.436;2024-01-30T03:20:52;37.13;;;24.00;;
52586;SDS011;38480;52.724;6.436;2024-01-30T03:23:18;41.43;;;24.60;;
52586;SDS011;38480;52.724;6.436;2024-01-30T03:25:44;36.53;;;23.37;;
52586;SDS011;38480;52.724;6.436;2024-01-30T03:28:10;40.03;;;24.93;;
52586;SDS011;38480;52.724;6.436;2024-01-30T03:30:36;38.60;;;23.33;;
52586;SDS011;38480;52.724;6.436;2024-01-30T03:33:02;34.17;;;24.53;;
52586;SDS011;38480;52.724;6.436;2024-01-30T03:35:28;34.17;;;22.77;;
52586;SDS011;38480;52.724;6.436;2024-01-30T03:37:54;37.10;;;25.23;;
52586;SDS011;38480;52.724;6.436;2024-01-30T03:40:20;35.83;;;24.27;;
52586;SDS011;38480;52.724;6.436;2024-01-30T03:42:46;36.73;;;22.87;;
52586;SDS011;38480;52.724;6.436;2024-01-30T03:45:12;34.63;;;23.70;;
52586;SDS011;38480;52.724;6.436;2024-01-30T03:47:38;33.33;;;22.13;;
52586;SDS011;38480;52.724;6.436;2024-01-30T03:50:04;28.20;;;20.70;;
52586;SDS011;38480;52.724;6.436;2024-01-30T03:52:30;32.30;;;21.53;;
52586;SDS011;38480;52.724;6.436;2024-01-30T03:54:56;26.97;;;20.47;;
52586;SDS011;38480;52.724;6.436;2024-01-30T03:57:22;31.77;;;19.57;;
52586;SDS011;38480;52.724;6.436;2024-01-30T03:59:48;33.13;;;21.73;;
52586;SDS011;38480;52.724;6.436;2024-01-30T04:02:14;28.67;;;20.13;;
52586;SDS011;38480;52.724;6.436;2024-01-30T04:04:40;24.90;;;19.70;;
52586;SDS011;38480;52.724;6.436;2024-01-30T04:07:06;27.50;;;18.87;;
52586;SDS011;38480;52.724;6.436;2024-01-30T04:09:32;33.83;;;20.57;;
52586;SDS011;38480;52.724;6.436;2024-01-30T04:11:58;28.47;;;19.37;;
52586;SDS011;38480;52.724;6.436;2024-01-30T04:14:24;24.43;;;17.90;;
52586;SDS011;38480;52.724;6.436;2024-01-30T04:16:50;22.03;;;16.10;;
52586;SDS011;38480;52.724;6.436;2024-01-30T04:19:16;32.17;;;17.03;;
52586;SDS011;38480;52.724;6.436;2024-01-30T04:21:42;25.13;;;17.40;;
52586;SDS011;38480;52.724;6.436;2024-01-30T04:24:08;25.53;;;16.63;;
52586;SDS011;38480;52.724;6.436;2024-01-30T04:26:34;23.90;;;16.40;;
52586;SDS011;38480;52.724;6.436;2024-01-30T04:29:01;24.83;;;15.47;;
52586;SDS011;38480;52.724;6.436;2024-01-30T04:31:27;23.57;;;15.27;;
52586;SDS011;38480;52.724;6.436;2024-01-30T04:33:53;23.87;;;16.53;;
52586;SDS011;38480;52.724;6.436;2024-01-30T04:36:19;22.30;;;16.07;;
52586;SDS011;38480;52.724;6.436;2024-01-30T04:38:46;23.27;;;15.80;;
52586;SDS011;38480;52.724;6.436;2024-01-30T04:41:12;22.43;;;16.00;;
52586;SDS011;38480;52.724;6.436;2024-01-30T04:43:38;20.80;;;15.57;;
52586;SDS011;38480;52.724;6.436;2024-01-30T04:46:04;21.50;;;15.23;;
52586;SDS011;38480;52.724;6.436;2024-01-30T04:48:30;22.40;;;14.70;;
52586;SDS011;38480;52.724;6.436;2024-01-30T04:50:56;26.43;;;14.47;;
52586;SDS011;38480;52.724;6.436;2024-01-30T04:53:22;29.07;;;16.23;;
52586;SDS011;38480;52.724;6.436;2024-01-30T04:55:48;21.10;;;14.03;;
52586;SDS011;38480;52.724;6.436;2024-01-30T04:58:14;20.53;;;14.30;;
52586;SDS011;38480;52.724;6.436;2024-01-30T05:00:40;27.37;;;14.37;;
52586;SDS011;38480;52.724;6.436;2024-01-30T05:03:06;19.17;;;13.67;;
52586;SDS011;38480;52.724;6.436;2024-01-30T05:05:32;24.50;;;14.70;;
52586;SDS011;38480;52.724;6.436;2024-01-30T05:07:59;20.77;;;13.67;;
52586;SDS011;38480;52.724;6.436;2024-01-30T05:10:25;21.07;;;15.27;;
52586;SDS011;38480;52.724;6.436;2024-01-30T05:12:51;19.97;;;13.37;;
52586;SDS011;38480;52.724;6.436;2024-01-30T05:15:20;19.40;;;14.63;;
52586;SDS011;38480;52.724;6.436;2024-01-30T05:17:46;19.53;;;14.77;;
52586;SDS011;38480;52.724;6.436;2024-01-30T05:20:12;23.83;;;13.53;;
52586;SDS011;38480;52.724;6.436;2024-01-30T05:22:38;21.50;;;14.30;;
52586;SDS011;38480;52.724;6.436;2024-01-30T05:25:09;19.47;;;13.27;;
52586;SDS011;38480;52.724;6.436;2024-01-30T05:27:35;21.27;;;13.40;;
52586;SDS011;38480;52.724;6.436;2024-01-30T05:30:01;17.33;;;12.67;;
52586;SDS011;38480;52.724;6.436;2024-01-30T05:32:27;19.73;;;12.43;;
52586;SDS011;38480;52.724;6.436;2024-01-30T05:34:53;17.77;;;13.43;;
52586;SDS011;38480;52.724;6.436;2024-01-30T05:37:19;18.50;;;13.17;;
52586;SDS011;38480;52.724;6.436;2024-01-30T05:39:45;20.10;;;13.23;;
52586;SDS011;38480;52.724;6.436;2024-01-30T05:42:11;18.40;;;12.23;;
52586;SDS011;38480;52.724;6.436;2024-01-30T05:44:37;18.03;;;11.50;;
52586;SDS011;38480;52.724;6.436;2024-01-30T05:47:03;17.50;;;12.53;;
52586;SDS011;38480;52.724;6.436;2024-01-30T05:49:29;17.73;;;13.00;;
52586;SDS011;38480;52.724;6.436;2024-01-30T05:51:55;21.30;;;12.13;;
52586;SDS011;38480;52.724;6.436;2024-01-30T05:54:21;16.93;;;11.73;;
52586;SDS011;38480;52.724;6.436;2024-01-30T05:56:47;20.43;;;11.83;;
52586;SDS011;38480;52.724;6.436;2024-01-30T05:59:13;18.30;;;10.87;;
52586;SDS011;38480;52.724;6.436;2024-01-30T06:01:48;20.10;;;12.17;;
52586;SDS011;38480;52.724;6.436;2024-01-30T06:04:15;17.70;;;11.53;;
52586;SDS011;38480;52.724;6.436;2024-01-30T06:06:41;17.33;;;11.87;;
52586;SDS011;38480;52.724;6.436;2024-01-30T06:09:09;18.53;;;11.53;;
52586;SDS011;38480;52.724;6.436;2024-01-30T06:11:37;18.30;;;12.33;;
52586;SDS011;38480;52.724;6.436;2024-01-30T06:14:04;19.87;;;11.37;;
52586;SDS011;38480;52.724;6.436;2024-01-30T06:16:29;21.07;;;11.80;;
52586;SDS011;38480;52.724;6.436;2024-01-30T06:18:56;19.17;;;12.80;;
52586;SDS011;38480;52.724;6.436;2024-01-30T06:21:22;18.87;;;12.70;;
52586;SDS011;38480;52.724;6.436;2024-01-30T06:23:48;19.97;;;11.90;;
52586;SDS011;38480;52.724;6.436;2024-01-30T06:26:14;19.77;;;12.43;;
52586;SDS011;38480;52.724;6.436;2024-01-30T06:28:40;18.00;;;12.47;;
52586;SDS011;38480;52.724;6.436;2024-01-30T06:31:06;20.03;;;12.93;;
52586;SDS011;38480;52.724;6.436;2024-01-30T06:33:32;19.57;;;12.10;;
52586;SDS011;38480;52.724;6.436;2024-01-30T06:35:58;17.83;;;11.13;;
52586;SDS011;38480;52.724;6.436;2024-01-30T06:38:24;17.80;;;12.07;;
52586;SDS011;38480;52.724;6.436;2024-01-30T06:40:50;18.20;;;11.40;;
52586;SDS011;38480;52.724;6.436;2024-01-30T06:43:16;17.70;;;12.20;;
52586;SDS011;38480;52.724;6.436;2024-01-30T06:45:42;17.37;;;11.53;;
52586;SDS011;38480;52.724;6.436;2024-01-30T06:48:08;16.53;;;11.90;;
52586;SDS011;38480;52.724;6.436;2024-01-30T06:50:34;18.63;;;12.07;;
52586;SDS011;38480;52.724;6.436;2024-01-30T06:53:00;21.50;;;11.27;;
52586;SDS011;38480;52.724;6.436;2024-01-30T06:55:26;13.70;;;10.70;;
52586;SDS011;38480;52.724;6.436;2024-01-30T06:57:52;20.30;;;11.83;;
52586;SDS011;38480;52.724;6.436;2024-01-30T07:00:18;19.30;;;12.93;;
52586;SDS011;38480;52.724;6.436;2024-01-30T07:02:44;16.53;;;11.90;;
52586;SDS011;38480;52.724;6.436;2024-01-30T07:05:10;19.73;;;11.43;;
52586;SDS011;38480;52.724;6.436;2024-01-30T07:07:36;19.07;;;12.57;;
52586;SDS011;38480;52.724;6.436;2024-01-30T07:10:02;17.13;;;11.00;;
52586;SDS011;38480;52.724;6.436;2024-01-30T07:12:30;17.97;;;11.93;;
52586;SDS011;38480;52.724;6.436;2024-01-30T07:14:56;20.90;;;12.70;;
52586;SDS011;38480;52.724;6.436;2024-01-30T07:17:24;19.17;;;11.90;;
52586;SDS011;38480;52.724;6.436;2024-01-30T07:19:50;18.10;;;12.50;;
52586;SDS011;38480;52.724;6.436;2024-01-30T07:22:16;20.83;;;12.40;;
52586;SDS011;38480;52.724;6.436;2024-01-30T07:24:43;19.73;;;12.83;;
52586;SDS011;38480;52.724;6.436;2024-01-30T07:27:14;17.90;;;11.87;;
52586;SDS011;38480;52.724;6.436;2024-01-30T07:29:42;18.80;;;13.07;;
52586;SDS011;38480;52.724;6.436;2024-01-30T07:32:08;19.23;;;12.50;;
52586;SDS011;38480;52.724;6.436;2024-01-30T07:34:34;19.43;;;11.40;;
52586;SDS011;38480;52.724;6.436;2024-01-30T07:37:01;17.80;;;12.07;;
52586;SDS011;38480;52.724;6.436;2024-01-30T07:39:27;17.30;;;13.07;;
52586;SDS011;38480;52.724;6.436;2024-01-30T07:41:53;16.43;;;11.97;;
52586;SDS011;38480;52.724;6.436;2024-01-30T07:44:20;18.57;;;12.13;;
52586;SDS011;38480;52.724;6.436;2024-01-30T07:46:46;18.07;;;11.57;;
52586;SDS011;38480;52.724;6.436;2024-01-30T07:49:14;18.53;;;10.80;;
52586;SDS011;38480;52.724;6.436;2024-01-30T07:51:40;17.13;;;11.60;;
52586;SDS011;38480;52.724;6.436;2024-01-30T07:54:08;18.20;;;11.93;;
52586;SDS011;38480;52.724;6.436;2024-01-30T07:56:34;15.50;;;10.27;;
52586;SDS011;38480;52.724;6.436;2024-01-30T07:59:00;16.57;;;10.87;;
52586;SDS011;38480;52.724;6.436;2024-01-30T08:01:28;20.83;;;12.00;;
52586;SDS011;38480;52.724;6.436;2024-01-30T08:03:54;14.50;;;10.80;;
52586;SDS011;38480;52.724;6.436;2024-01-30T08:06:22;14.87;;;10.53;;
52586;SDS011;38480;52.724;6.436;2024-01-30T08:08:48;18.13;;;11.07;;
52586;SDS011;38480;52.724;6.436;2024-01-30T08:11:15;18.63;;;11.20;;
52586;SDS011;38480;52.724;6.436;2024-01-30T08:13:41;16.53;;;10.43;;
52586;SDS011;38480;52.724;6.436;2024-01-30T08:16:07;17.83;;;10.93;;
52586;SDS011;38480;52.724;6.436;2024-01-30T08:18:33;14.70;;;10.17;;
52586;SDS011;38480;52.724;6.436;2024-01-30T08:20:59;15.40;;;11.17;;
52586;SDS011;38480;52.724;6.436;2024-01-30T08:23:25;16.30;;;11.20;;
52586;SDS011;38480;52.724;6.436;2024-01-30T08:25:51;16.57;;;10.53;;
52586;SDS011;38480;52.724;6.436;2024-01-30T08:28:17;15.30;;;10.00;;
52586;SDS011;38480;52.724;6.436;2024-01-30T08:30:43;20.37;;;11.90;;
52586;SDS011;38480;52.724;6.436;2024-01-30T08:33:09;14.60;;;10.13;;
52586;SDS011;38480;52.724;6.436;2024-01-30T08:35:35;15.17;;;10.37;;
52586;SDS011;38480;52.724;6.436;2024-01-30T08:38:01;13.33;;;10.23;;
52586;SDS011;38480;52.724;6.436;2024-01-30T08:40:28;14.00;;;9.93;;
52586;SDS011;38480;52.724;6.436;2024-01-30T08:42:56;15.40;;;10.37;;
52586;SDS011;38480;52.724;6.436;2024-01-30T08:45:22;13.40;;;9.87;;
52586;SDS011;38480;52.724;6.436;2024-01-30T08:47:49;16.10;;;10.53;;
52586;SDS011;38480;52.724;6.436;2024-01-30T08:50:15;16.80;;;10.40;;
52586;SDS011;38480;52.724;6.436;2024-01-30T08:52:41;14.83;;;10.47;;
52586;SDS011;38480;52.724;6.436;2024-01-30T08:55:07;24.57;;;11.10;;
52586;SDS011;38480;52.724;6.436;2024-01-30T08:57:33;19.80;;;11.27;;
52586;SDS011;38480;52.724;6.436;2024-01-30T09:00:01;15.97;;;10.20;;
52586;SDS011;38480;52.724;6.436;2024-01-30T09:02:31;15.53;;;9.87;;
52586;SDS011;38480;52.724;6.436;2024-01-30T09:04:57;14.33;;;10.57;;
52586;SDS011;38480;52.724;6.436;2024-01-30T09:07:23;16.70;;;9.87;;
52586;SDS011;38480;52.724;6.436;2024-01-30T09:09:49;16.93;;;10.57;;
52586;SDS011;38480;52.724;6.436;2024-01-30T09:12:15;16.37;;;9.47;;
52586;SDS011;38480;52.724;6.436;2024-01-30T09:14:41;13.37;;;9.93;;
52586;SDS011;38480;52.724;6.436;2024-01-30T09:17:07;12.53;;;9.40;;
52586;SDS011;38480;52.724;6.436;2024-01-30T09:19:34;12.93;;;9.70;;
52586;SDS011;38480;52.724;6.436;2024-01-30T09:22:01;15.53;;;10.47;;
52586;SDS011;38480;52.724;6.436;2024-01-30T09:24:28;14.33;;;8.90;;
52586;SDS011;38480;52.724;6.436;2024-01-30T09:26:54;14.40;;;9.97;;
52586;SDS011;38480;52.724;6.436;2024-01-30T09:29:20;16.50;;;9.80;;
52586;SDS011;38480;52.724;6.436;2024-01-30T09:31:46;15.43;;;9.33;;
52586;SDS011;38480;52.724;6.436;2024-01-30T09:34:13;13.43;;;9.73;;
52586;SDS011;38480;52.724;6.436;2024-01-30T09:36:41;14.73;;;9.60;;
52586;SDS011;38480;52.724;6.436;2024-01-30T09:39:07;13.37;;;9.27;;
52586;SDS011;38480;52.724;6.436;2024-01-30T09:41:33;19.23;;;10.33;;
52586;SDS011;38480;52.724;6.436;2024-01-30T09:44:01;11.27;;;8.47;;
52586;SDS011;38480;52.724;6.436;2024-01-30T09:46:27;18.50;;;9.70;;
52586;SDS011;38480;52.724;6.436;2024-01-30T09:48:53;14.17;;;8.87;;
52586;SDS011;38480;52.724;6.436;2024-01-30T09:51:22;15.43;;;9.27;;
52586;SDS011;38480;52.724;6.436;2024-01-30T09:53:48;17.37;;;10.40;;
52586;SDS011;38480;52.724;6.436;2024-01-30T09:56:14;19.67;;;9.60;;
52586;SDS011;38480;52.724;6.436;2024-01-30T09:58:41;15.60;;;9.60;;
52586;SDS011;38480;52.724;6.436;2024-01-30T10:01:07;13.07;;;9.00;;
52586;SDS011;38480;52.724;6.436;2024-01-30T10:03:33;13.47;;;9.13;;
52586;SDS011;38480;52.724;6.436;2024-01-30T10:05:59;17.47;;;9.27;;
52586;SDS011;38480;52.724;6.436;2024-01-30T10:08:26;13.63;;;8.33;;
52586;SDS011;38480;52.724;6.436;2024-01-30T10:10:54;14.60;;;8.77;;
52586;SDS011;38480;52.724;6.436;2024-01-30T10:13:20;15.00;;;9.37;;
52586;SDS011;38480;52.724;6.436;2024-01-30T10:15:48;19.80;;;9.30;;
52586;SDS011;38480;52.724;6.436;2024-01-30T10:18:15;13.33;;;8.93;;
52586;SDS011;38480;52.724;6.436;2024-01-30T10:20:41;17.20;;;8.60;;
52586;SDS011;38480;52.724;6.436;2024-01-30T10:23:07;15.43;;;9.13;;
52586;SDS011;38480;52.724;6.436;2024-01-30T10:25:33;17.57;;;8.73;;
52586;SDS011;38480;52.724;6.436;2024-01-30T10:27:59;14.93;;;9.07;;
52586;SDS011;38480;52.724;6.436;2024-01-30T10:30:26;15.67;;;9.00;;
52586;SDS011;38480;52.724;6.436;2024-01-30T10:32:54;18.77;;;9.73;;
52586;SDS011;38480;52.724;6.436;2024-01-30T10:35:20;17.10;;;9.77;;
52586;SDS011;38480;52.724;6.436;2024-01-30T10:37:46;17.40;;;9.53;;
52586;SDS011;38480;52.724;6.436;2024-01-30T10:40:13;19.97;;;9.70;;
52586;SDS011;38480;52.724;6.436;2024-01-30T10:42:43;20.93;;;9.37;;
52586;SDS011;38480;52.724;6.436;2024-01-30T10:45:13;15.40;;;8.23;;
52586;SDS011;38480;52.724;6.436;2024-01-30T10:47:43;15.93;;;9.50;;
52586;SDS011;38480;52.724;6.436;2024-01-30T10:50:09;14.97;;;9.03;;
52586;SDS011;38480;52.724;6.436;2024-01-30T10:52:37;13.27;;;8.50;;
52586;SDS011;38480;52.724;6.436;2024-01-30T10:55:03;14.63;;;8.13;;
52586;SDS011;38480;52.724;6.436;2024-01-30T10:57:36;16.50;;;8.30;;
52586;SDS011;38480;52.724;6.436;2024-01-30T11:00:03;15.10;;;9.37;;
52586;SDS011;38480;52.724;6.436;2024-01-30T11:02:30;14.70;;;9.40;;
52586;SDS011;38480;52.724;6.436;2024-01-30T11:04:58;14.30;;;8.63;;
52586;SDS011;38480;52.724;6.436;2024-01-30T11:07:25;12.43;;;9.23;;
52586;SDS011;38480;52.724;6.436;2024-01-30T11:09:53;15.90;;;9.23;;
52586;SDS011;38480;52.724;6.436;2024-01-30T11:12:23;19.10;;;9.70;;
52586;SDS011;38480;52.724;6.436;2024-01-30T11:17:49;16.17;;;10.33;;
52586;SDS011;38480;52.724;6.436;2024-01-30T11:22:45;20.60;;;11.33;;
52586;SDS011;38480;52.724;6.436;2024-01-30T11:25:11;24.73;;;11.27;;
52586;SDS011;38480;52.724;6.436;2024-01-30T11:27:39;14.77;;;9.57;;
52586;SDS011;38480;52.724;6.436;2024-01-30T11:30:05;15.47;;;10.03;;
52586;SDS011;38480;52.724;6.436;2024-01-30T11:32:33;18.23;;;9.73;;
52586;SDS011;38480;52.724;6.436;2024-01-30T11:34:59;18.03;;;10.17;;
52586;SDS011;38480;52.724;6.436;2024-01-30T11:37:25;18.93;;;9.93;;
52586;SDS011;38480;52.724;6.436;2024-01-30T11:39:53;17.50;;;10.63;;
52586;SDS011;38480;52.724;6.436;2024-01-30T11:42:19;20.63;;;12.70;;
52586;SDS011;38480;52.724;6.436;2024-01-30T11:44:48;15.37;;;9.33;;
52586;SDS011;38480;52.724;6.436;2024-01-30T11:47:14;16.63;;;9.83;;
52586;SDS011;38480;52.724;6.436;2024-01-30T11:49:41;12.87;;;8.97;;
52586;SDS011;38480;52.724;6.436;2024-01-30T11:52:08;16.87;;;8.93;;
52586;SDS011;38480;52.724;6.436;2024-01-30T11:54:34;14.87;;;9.00;;
52586;SDS011;38480;52.724;6.436;2024-01-30T11:57:00;17.60;;;9.60;;
52586;SDS011;38480;52.724;6.436;2024-01-30T11:59:26;13.23;;;8.93;;
52586;SDS011;38480;52.724;6.436;2024-01-30T12:01:52;14.03;;;8.30;;
52586;SDS011;38480;52.724;6.436;2024-01-30T12:04:20;15.10;;;8.37;;
52586;SDS011;38480;52.724;6.436;2024-01-30T12:06:46;11.30;;;8.50;;
52586;SDS011;38480;52.724;6.436;2024-01-30T12:09:16;15.03;;;7.80;;
52586;SDS011;38480;52.724;6.436;2024-01-30T12:14:11;12.00;;;7.00;;
52586;SDS011;38480;52.724;6.436;2024-01-30T12:16:37;16.37;;;9.10;;
52586;SDS011;38480;52.724;6.436;2024-01-30T12:19:03;12.77;;;7.73;;
52586;SDS011;38480;52.724;6.436;2024-01-30T12:21:30;15.57;;;7.20;;
52586;SDS011;38480;52.724;6.436;2024-01-30T12:23:56;12.27;;;7.40;;
52586;SDS011;38480;52.724;6.436;2024-01-30T12:26:23;12.63;;;7.43;;
52586;SDS011;38480;52.724;6.436;2024-01-30T12:28:55;21.17;;;6.77;;
52586;SDS011;38480;52.724;6.436;2024-01-30T12:31:31;11.53;;;5.80;;
52586;SDS011;38480;52.724;6.436;2024-01-30T12:33:59;14.90;;;5.77;;
52586;SDS011;38480;52.724;6.436;2024-01-30T12:36:25;8.47;;;4.67;;
52586;SDS011;38480;52.724;6.436;2024-01-30T12:38:51;12.93;;;5.63;;
52586;SDS011;38480;52.724;6.436;2024-01-30T12:41:19;10.70;;;4.60;;
52586;SDS011;38480;52.724;6.436;2024-01-30T12:43:45;11.07;;;4.60;;
52586;SDS011;38480;52.724;6.436;2024-01-30T12:46:12;13.63;;;4.73;;
52586;SDS011;38480;52.724;6.436;2024-01-30T12:48:38;11.87;;;4.07;;
52586;SDS011;38480;52.724;6.436;2024-01-30T12:51:04;13.20;;;3.47;;
52586;SDS011;38480;52.724;6.436;2024-01-30T12:53:30;7.53;;;3.93;;
52586;SDS011;38480;52.724;6.436;2024-01-30T12:55:56;11.13;;;3.50;;
52586;SDS011;38480;52.724;6.436;2024-01-30T12:58:22;5.37;;;3.23;;
52586;SDS011;38480;52.724;6.436;2024-01-30T13:00:48;8.10;;;2.80;;
52586;SDS011;38480;52.724;6.436;2024-01-30T13:03:14;10.03;;;3.30;;
52586;SDS011;38480;52.724;6.436;2024-01-30T13:05:44;5.87;;;3.23;;
52586;SDS011;38480;52.724;6.436;2024-01-30T13:08:10;5.53;;;3.40;;
52586;SDS011;38480;52.724;6.436;2024-01-30T13:10:39;6.80;;;3.00;;
52586;SDS011;38480;52.724;6.436;2024-01-30T13:13:05;6.37;;;3.60;;
52586;SDS011;38480;52.724;6.436;2024-01-30T13:15:31;8.37;;;3.43;;
52586;SDS011;38480;52.724;6.436;2024-01-30T13:17:57;7.63;;;4.07;;
52586;SDS011;38480;52.724;6.436;2024-01-30T13:20:23;6.27;;;3.53;;
52586;SDS011;38480;52.724;6.436;2024-01-30T13:22:49;11.07;;;4.13;;
52586;SDS011;38480;52.724;6.436;2024-01-30T13:25:15;11.07;;;4.40;;
52586;SDS011;38480;52.724;6.436;2024-01-30T13:27:41;7.00;;;4.13;;
52586;SDS011;38480;52.724;6.436;2024-01-30T13:30:08;9.57;;;4.03;;
52586;SDS011;38480;52.724;6.436;2024-01-30T13:32:34;10.57;;;4.63;;
52586;SDS011;38480;52.724;6.436;2024-01-30T13:35:01;8.30;;;4.60;;
52586;SDS011;38480;52.724;6.436;2024-01-30T13:37:27;8.87;;;4.37;;
52586;SDS011;38480;52.724;6.436;2024-01-30T13:39:53;11.43;;;5.13;;
52586;SDS011;38480;52.724;6.436;2024-01-30T13:42:19;11.73;;;5.00;;
52586;SDS011;38480;52.724;6.436;2024-01-30T13:44:45;9.67;;;4.60;;
52586;SDS011;38480;52.724;6.436;2024-01-30T13:47:13;8.93;;;4.43;;
52586;SDS011;38480;52.724;6.436;2024-01-30T13:49:39;12.47;;;4.23;;
52586;SDS011;38480;52.724;6.436;2024-01-30T13:52:05;7.97;;;4.53;;
52586;SDS011;38480;52.724;6.436;2024-01-30T13:54:31;13.07;;;4.13;;
52586;SDS011;38480;52.724;6.436;2024-01-30T13:56:57;6.17;;;3.40;;
52586;SDS011;38480;52.724;6.436;2024-01-30T13:59:23;5.70;;;3.20;;
52586;SDS011;38480;52.724;6.436;2024-01-30T14:01:51;8.23;;;2.57;;
52586;SDS011;38480;52.724;6.436;2024-01-30T14:04:17;8.77;;;2.60;;
52586;SDS011;38480;52.724;6.436;2024-01-30T14:06:43;9.07;;;2.90;;
52586;SDS011;38480;52.724;6.436;2024-01-30T14:09:09;4.67;;;1.63;;
52586;SDS011;38480;52.724;6.436;2024-01-30T14:11:36;3.70;;;1.23;;
52586;SDS011;38480;52.724;6.436;2024-01-30T14:14:02;3.17;;;1.43;;
52586;SDS011;38480;52.724;6.436;2024-01-30T14:16:28;3.93;;;1.40;;
52586;SDS011;38480;52.724;6.436;2024-01-30T14:18:54;4.17;;;1.37;;
52586;SDS011;38480;52.724;6.436;2024-01-30T14:21:20;5.97;;;1.60;;
52586;SDS011;38480;52.724;6.436;2024-01-30T14:23:49;4.93;;;1.77;;
52586;SDS011;38480;52.724;6.436;2024-01-30T14:26:15;4.33;;;2.17;;
52586;SDS011;38480;52.724;6.436;2024-01-30T14:28:41;6.73;;;1.30;;
52586;SDS011;38480;52.724;6.436;2024-01-30T14:31:08;4.13;;;1.20;;
52586;SDS011;38480;52.724;6.436;2024-01-30T14:33:34;3.50;;;1.40;;
52586;SDS011;38480;52.724;6.436;2024-01-30T14:36:00;4.93;;;1.80;;
52586;SDS011;38480;52.724;6.436;2024-01-30T14:38:26;4.13;;;1.43;;
52586;SDS011;38480;52.724;6.436;2024-01-30T14:40:53;2.87;;;1.50;;
52586;SDS011;38480;52.724;6.436;2024-01-30T14:43:19;3.30;;;1.90;;
52586;SDS011;38480;52.724;6.436;2024-01-30T14:45:45;5.50;;;1.87;;
52586;SDS011;38480;52.724;6.436;2024-01-30T14:48:14;3.73;;;1.67;;
52586;SDS011;38480;52.724;6.436;2024-01-30T14:50:40;5.80;;;2.27;;
52586;SDS011;38480;52.724;6.436;2024-01-30T14:53:06;9.47;;;1.70;;
52586;SDS011;38480;52.724;6.436;2024-01-30T14:55:32;6.77;;;2.60;;
52586;SDS011;38480;52.724;6.436;2024-01-30T14:57:58;5.80;;;2.50;;
52586;SDS011;38480;52.724;6.436;2024-01-30T15:00:24;9.00;;;2.87;;
52586;SDS011;38480;52.724;6.436;2024-01-30T15:02:50;7.13;;;2.90;;